KGLS

Scholes International At Galveston Airport

Galveston, Texas, USA
METAR KGLS 151252Z 36016G23KT 10SM -RA OVC095 11/05 A3019 RMK AO2 RAB01 SLP223 P0000 T01060050
Observed Flight Rules
Dec-15 @ 12:52 UTC (an hour ago) Visual Flight Rules
Wind Visibility Clouds Conditions
360° at 16 knots
 Gusting to 23 knots
10 miles
  • Overcast at 9,500' AGL
  • Light Rain
Temperatures Readings Precipitation
Current 11°C / 52°F
Dewpoint 5°C / 41°F
Humidity 67%
Altimeter 30.19" Hg
Pressure 1022.3 hPa
Elevation 6
Current Rain 0.005
METAR KGLS 151252Z 36016G23KT 10SM -RA OVC095 11/05 A3019 RMK AO2 RAB01 SLP223 P0000 T01060050
Observed Flight Rules
Dec-15 @ 12:52 UTC
(an hour ago)
VFR
Wind Visibility
360° at 16 knots
 Gusting to 23 knots
10 miles
Clouds
  • Overcast at 9,500' AGL
Conditions
  • Light Rain
Temperature Dewpoint
11°C / 52°F 5°C / 41°F
Humidity Altimeter Pressure
67% 30.19" Hg 1022.3 hPa
Current Rain
0.005